createdAt,value
2023-05-06T00:00:19.000Z,33.6
2023-05-06T00:03:20.000Z,19.9
2023-05-06T00:04:51.000Z,19.1
2023-05-06T00:06:08.000Z,17.8
2023-05-06T00:07:25.000Z,11.9
2023-05-06T00:08:55.000Z,19.1
2023-05-06T00:10:26.000Z,36.9
2023-05-06T00:12:05.000Z,18.4
2023-05-06T00:13:35.000Z,55.2
2023-05-06T00:15:06.000Z,39.6
2023-05-06T00:16:36.000Z,45.2
2023-05-06T00:18:07.000Z,25.9
2023-05-06T00:19:37.000Z,21.5
2023-05-06T00:21:08.000Z,23
2023-05-06T00:22:25.000Z,17.3
2023-05-06T00:25:12.000Z,28
2023-05-06T00:26:43.000Z,30.5
2023-05-06T00:28:13.000Z,39.6
2023-05-06T00:29:44.000Z,25.3
2023-05-06T00:31:14.000Z,26.4
2023-05-06T00:32:45.000Z,16.5
2023-05-06T00:34:15.000Z,19
2023-05-06T00:35:46.000Z,17.8
2023-05-06T00:37:16.000Z,12.4
2023-05-06T00:38:33.000Z,9.8
2023-05-06T00:39:50.000Z,23.9
2023-05-06T00:41:21.000Z,15.6
2023-05-06T00:42:51.000Z,22.8
2023-05-06T00:44:22.000Z,20.7
2023-05-06T00:45:52.000Z,19.7
2023-05-06T00:47:23.000Z,19
2023-05-06T00:48:53.000Z,14.8
2023-05-06T00:50:24.000Z,15.2
2023-05-06T00:51:54.000Z,36.2
2023-05-06T00:53:25.000Z,25.6
2023-05-06T00:54:42.000Z,29.2
2023-05-06T00:55:59.000Z,31.7
2023-05-06T00:57:29.000Z,34.6
2023-05-06T00:59:00.000Z,34.7
2023-05-06T01:00:30.000Z,39
2023-05-06T01:03:31.000Z,33.1
2023-05-06T01:06:32.000Z,22.6
2023-05-06T01:08:03.000Z,29.7
2023-05-06T01:09:33.000Z,35.5
2023-05-06T01:10:50.000Z,58
2023-05-06T01:12:07.000Z,53.2
2023-05-06T01:13:38.000Z,38.7
2023-05-06T01:18:09.000Z,21.1
2023-05-06T01:21:10.000Z,20.1
2023-05-06T01:22:41.000Z,21.7
2023-05-06T01:24:11.000Z,22.8
2023-05-06T01:25:42.000Z,18.7
2023-05-06T01:26:59.000Z,19.2
2023-05-06T01:28:16.000Z,17.7
2023-05-06T01:29:46.000Z,21.5
2023-05-06T01:31:17.000Z,16.7
2023-05-06T01:32:47.000Z,22.1
2023-05-06T01:34:18.000Z,31.2
2023-05-06T01:35:48.000Z,29.8
2023-05-06T01:37:19.000Z,29.7
2023-05-06T01:38:49.000Z,16.1
2023-05-06T01:40:20.000Z,18.8
2023-05-06T01:41:50.000Z,19.4
2023-05-06T01:43:07.000Z,19.2
2023-05-06T01:44:24.000Z,30.2
2023-05-06T01:45:55.000Z,59.5
2023-05-06T01:47:25.000Z,73.1
2023-05-06T01:48:56.000Z,62.4
2023-05-06T01:50:26.000Z,29.5
2023-05-06T01:51:57.000Z,37.3
2023-05-06T01:53:27.000Z,37.8
2023-05-06T01:54:58.000Z,30.7
2023-05-06T01:56:28.000Z,29.5
2023-05-06T01:57:59.000Z,25.2
2023-05-06T01:59:16.000Z,34
2023-05-06T02:02:03.000Z,25.7
2023-05-06T02:03:34.000Z,25.4
2023-05-06T02:05:04.000Z,30.2
2023-05-06T02:06:35.000Z,23.5
2023-05-06T02:08:05.000Z,26.5
2023-05-06T02:09:36.000Z,24.3
2023-05-06T02:11:06.000Z,27.3
2023-05-06T02:12:37.000Z,23.7
2023-05-06T02:14:07.000Z,29
2023-05-06T02:15:24.000Z,31.6
2023-05-06T02:16:41.000Z,22.2
2023-05-06T02:18:12.000Z,24
2023-05-06T02:19:42.000Z,22.6
2023-05-06T02:21:13.000Z,20.2
2023-05-06T02:24:14.000Z,26.3
2023-05-06T02:25:44.000Z,23.2
2023-05-06T02:27:15.000Z,27.6
2023-05-06T02:28:45.000Z,37.1
2023-05-06T02:30:16.000Z,29.1
2023-05-06T02:31:33.000Z,33.6
2023-05-06T02:32:50.000Z,42.3
2023-05-06T02:34:20.000Z,38.3
2023-05-06T02:35:51.000Z,33.6
2023-05-06T02:37:21.000Z,38
2023-05-06T02:38:52.000Z,31.5
2023-05-06T02:40:22.000Z,28.9
2023-05-06T02:41:53.000Z,33
2023-05-06T02:43:23.000Z,33.8
2023-05-06T02:44:54.000Z,48.5
2023-05-06T02:46:25.000Z,47.3
2023-05-06T02:48:58.000Z,46.5
2023-05-06T02:50:29.000Z,39.4
2023-05-06T02:51:59.000Z,47.7
2023-05-06T02:53:30.000Z,47.5
2023-05-06T02:55:01.000Z,42.8
2023-05-06T02:56:31.000Z,42.5
2023-05-06T02:58:02.000Z,41.4
2023-05-06T02:59:32.000Z,43.8
2023-05-06T03:01:03.000Z,42.1
2023-05-06T03:02:33.000Z,49.2
2023-05-06T03:03:50.000Z,60
2023-05-06T03:05:07.000Z,63.8
2023-05-06T03:06:37.000Z,41
2023-05-06T03:08:08.000Z,37
2023-05-06T03:09:38.000Z,67.6
2023-05-06T03:11:09.000Z,50.4
2023-05-06T03:12:39.000Z,53
2023-05-06T03:14:10.000Z,51.8
2023-05-06T03:15:40.000Z,48.6
2023-05-06T03:17:11.000Z,50.5
2023-05-06T03:18:41.000Z,69.3
2023-05-06T03:19:58.000Z,80.8
2023-05-06T03:21:15.000Z,34.1
2023-05-06T03:24:16.000Z,60.3
2023-05-06T03:25:47.000Z,85.6
2023-05-06T03:27:17.000Z,77.5
2023-05-06T03:28:48.000Z,65.3
2023-05-06T03:30:18.000Z,81.1
2023-05-06T03:31:49.000Z,63.5
2023-05-06T03:33:19.000Z,71.9
2023-05-06T03:34:50.000Z,103.9
2023-05-06T03:36:07.000Z,84.4
2023-05-06T03:37:24.000Z,97.7
2023-05-06T03:38:54.000Z,120.5
2023-05-06T03:40:25.000Z,140.5
2023-05-06T03:41:55.000Z,111.8
2023-05-06T03:43:26.000Z,131.9
2023-05-06T03:44:56.000Z,115.9
2023-05-06T03:47:57.000Z,145.5
2023-05-06T03:49:28.000Z,174.8
2023-05-06T03:50:58.000Z,217.8
2023-05-06T03:52:15.000Z,240.7
2023-05-06T03:53:32.000Z,146.9
2023-05-06T03:55:03.000Z,123.1
2023-05-06T03:56:33.000Z,149
2023-05-06T03:58:04.000Z,92.1
2023-05-06T03:59:34.000Z,177.7
2023-05-06T04:02:35.000Z,174.4
2023-05-06T04:04:06.000Z,206.4
2023-05-06T04:05:36.000Z,178.9
2023-05-06T04:07:07.000Z,190.3
2023-05-06T04:08:24.000Z,171.6
2023-05-06T04:09:41.000Z,195.5
2023-05-06T04:11:11.000Z,292
2023-05-06T04:12:42.000Z,238
2023-05-06T04:14:12.000Z,160.3
2023-05-06T04:15:43.000Z,266.9
2023-05-06T04:17:13.000Z,243.6
2023-05-06T04:18:44.000Z,214.5
2023-05-06T04:20:14.000Z,122.7
2023-05-06T04:21:45.000Z,105.5
2023-05-06T04:25:49.000Z,113.5
2023-05-06T04:27:20.000Z,127.5
2023-05-06T04:28:50.000Z,135.4
2023-05-06T04:30:21.000Z,163.8
2023-05-06T04:31:51.000Z,81.2
2023-05-06T04:34:52.000Z,168.6
2023-05-06T04:36:23.000Z,144.1
2023-05-06T04:37:53.000Z,132.4
2023-05-06T04:39:24.000Z,136.1
2023-05-06T04:40:41.000Z,130.3
2023-05-06T04:41:58.000Z,215.7
2023-05-06T04:46:29.000Z,161
2023-05-06T04:48:00.000Z,185.8
2023-05-06T04:49:30.000Z,126.4
2023-05-06T04:51:01.000Z,151.3
2023-05-06T04:52:31.000Z,121.4
2023-05-06T04:54:02.000Z,126.1
2023-05-06T04:55:32.000Z,174.7
2023-05-06T04:56:49.000Z,174.9
2023-05-06T04:58:06.000Z,123.6
2023-05-06T04:59:37.000Z,149.4
2023-05-06T05:01:07.000Z,125.1
2023-05-06T05:02:38.000Z,152.2
2023-05-06T05:04:08.000Z,162.4
2023-05-06T05:05:39.000Z,185.6
2023-05-06T05:07:09.000Z,143.5
2023-05-06T05:10:10.000Z,150.8
2023-05-06T05:12:58.000Z,99.2
2023-05-06T05:14:15.000Z,273
2023-05-06T05:15:45.000Z,175.2
2023-05-06T05:17:16.000Z,150.1
2023-05-06T05:20:17.000Z,157.4
2023-05-06T05:21:47.000Z,151.7
2023-05-06T05:23:18.000Z,224.8
2023-05-06T05:24:48.000Z,189.9
2023-05-06T05:27:50.000Z,220.9
2023-05-06T05:29:06.000Z,160.6
2023-05-06T05:30:23.000Z,139.7
2023-05-06T05:31:54.000Z,152.7
2023-05-06T05:33:24.000Z,163.3
2023-05-06T05:37:56.000Z,167.3
2023-05-06T05:39:27.000Z,167.1
2023-05-06T05:42:28.000Z,98.6
2023-05-06T05:43:58.000Z,72.1
2023-05-06T05:45:15.000Z,60.6
2023-05-06T05:50:32.000Z,123.3
2023-05-06T05:53:16.000Z,133.6
2023-05-06T05:56:01.000Z,88.2
2023-05-06T05:58:46.000Z,93.8
2023-05-06T06:00:21.000Z,133.6
2023-05-06T06:01:46.000Z,125.9
2023-05-06T06:04:31.000Z,115.9
2023-05-06T06:07:16.000Z,121
2023-05-06T06:12:45.000Z,89.9
2023-05-06T06:15:30.000Z,87.8
2023-05-06T06:18:14.000Z,154.2
2023-05-06T06:20:59.000Z,93.9
2023-05-06T06:23:44.000Z,44.7
2023-05-06T06:26:28.000Z,39
2023-05-06T06:27:47.000Z,53
2023-05-06T06:29:13.000Z,71.1
2023-05-06T06:31:58.000Z,58.7
2023-05-06T06:34:42.000Z,78.2
2023-05-06T06:37:27.000Z,64.5
2023-05-06T06:42:56.000Z,31
2023-05-06T06:45:41.000Z,48.4
2023-05-06T06:48:25.000Z,68.9
2023-05-06T06:51:10.000Z,42.1
2023-05-06T06:53:55.000Z,30.4
2023-05-06T06:55:14.000Z,45.9
2023-05-06T06:56:39.000Z,29.7
2023-05-06T06:59:24.000Z,38.4
2023-05-06T07:02:09.000Z,34.9
2023-05-06T07:04:53.000Z,36.8
2023-05-06T07:10:39.000Z,33
2023-05-06T07:13:24.000Z,51.4
2023-05-06T07:16:08.000Z,40.1
2023-05-06T07:18:53.000Z,62.7
2023-05-06T07:21:37.000Z,35.3
2023-05-06T07:22:55.000Z,38.8
2023-05-06T07:24:22.000Z,39.5
2023-05-06T07:27:07.000Z,28.7
2023-05-06T07:29:51.000Z,33.6
2023-05-06T07:32:36.000Z,37.5
2023-05-06T07:35:21.000Z,29.3
2023-05-06T07:38:05.000Z,29.6
2023-05-06T07:40:50.000Z,33.7
2023-05-06T07:43:35.000Z,25.3
2023-05-06T07:46:19.000Z,24.7
2023-05-06T07:50:22.000Z,24.9
2023-05-06T07:51:48.000Z,28.1
2023-05-06T07:54:33.000Z,23
2023-05-06T07:57:18.000Z,25.1
2023-05-06T08:00:02.000Z,19.8
2023-05-06T08:02:47.000Z,19.6
2023-05-06T08:05:32.000Z,19.5
2023-05-06T08:08:16.000Z,19.9
2023-05-06T08:11:01.000Z,20.2
2023-05-06T08:13:46.000Z,13.8
2023-05-06T08:16:30.000Z,15.4
2023-05-06T08:17:48.000Z,15.4
2023-05-06T08:19:15.000Z,15.9
2023-05-06T08:22:00.000Z,17
2023-05-06T08:24:44.000Z,15.7
2023-05-06T08:27:29.000Z,17
2023-05-06T08:30:13.000Z,18.4
2023-05-06T08:32:58.000Z,15.1
2023-05-06T08:35:43.000Z,15.7
2023-05-06T08:38:27.000Z,14
2023-05-06T08:41:12.000Z,11.4
2023-05-06T08:43:57.000Z,14
2023-05-06T08:45:14.000Z,14.1
2023-05-06T08:46:41.000Z,12.1
2023-05-06T08:49:26.000Z,13.8
2023-05-06T08:52:11.000Z,14.5
2023-05-06T08:54:55.000Z,13.3
2023-05-06T08:57:40.000Z,12.9
2023-05-06T09:00:24.000Z,12.7
2023-05-06T09:03:09.000Z,15
2023-05-06T09:05:54.000Z,14
2023-05-06T09:08:38.000Z,12.6
2023-05-06T09:11:23.000Z,12.9
2023-05-06T09:12:41.000Z,12.4
2023-05-06T09:14:08.000Z,12.3
2023-05-06T09:16:52.000Z,13.2
2023-05-06T09:19:37.000Z,12.1
2023-05-06T09:22:22.000Z,14.2
2023-05-06T09:25:06.000Z,11.9
2023-05-06T09:27:51.000Z,13.6
2023-05-06T09:30:36.000Z,12.9
2023-05-06T09:33:20.000Z,15.1
2023-05-06T09:36:05.000Z,12.5
2023-05-06T09:38:49.000Z,12.7
2023-05-06T09:40:07.000Z,13.9
2023-05-06T09:41:34.000Z,15.2
2023-05-06T09:44:19.000Z,15.4
2023-05-06T09:47:03.000Z,14.8
2023-05-06T09:49:48.000Z,14.9
2023-05-06T09:52:33.000Z,14.3
2023-05-06T09:55:17.000Z,14.2
2023-05-06T09:58:02.000Z,16.1
2023-05-06T10:00:47.000Z,17
2023-05-06T10:03:31.000Z,16.8
2023-05-06T10:06:16.000Z,16.8
2023-05-06T10:07:34.000Z,19
2023-05-06T10:09:01.000Z,17.8
2023-05-06T10:11:45.000Z,18.1
2023-05-06T10:14:30.000Z,17.9
2023-05-06T10:17:14.000Z,16.4
2023-05-06T10:19:59.000Z,16.1
2023-05-06T10:22:44.000Z,18.7
2023-05-06T10:25:28.000Z,16.6
2023-05-06T10:28:13.000Z,17.9
2023-05-06T10:30:58.000Z,16.8
2023-05-06T10:33:42.000Z,17.7
2023-05-06T10:35:00.000Z,17.4
2023-05-06T10:36:27.000Z,17.2
2023-05-06T10:39:12.000Z,17.9
2023-05-06T10:41:56.000Z,17.7
2023-05-06T10:44:41.000Z,16.9
2023-05-06T10:47:25.000Z,18.6
2023-05-06T10:50:10.000Z,18.5
2023-05-06T10:52:55.000Z,18
2023-05-06T10:55:39.000Z,18.4
2023-05-06T10:58:24.000Z,18.2
2023-05-06T11:01:09.000Z,18.2
2023-05-06T11:02:27.000Z,17.3
2023-05-06T11:03:53.000Z,18
2023-05-06T11:06:38.000Z,18.9
2023-05-06T11:09:23.000Z,18.3
2023-05-06T11:12:07.000Z,16
2023-05-06T11:14:52.000Z,16.9
2023-05-06T11:17:37.000Z,15.8
2023-05-06T11:20:21.000Z,16.6
2023-05-06T11:23:06.000Z,16.7
2023-05-06T11:25:50.000Z,19.3
2023-05-06T11:28:35.000Z,18.3
2023-05-06T11:29:53.000Z,16.5
2023-05-06T11:31:20.000Z,19.3
2023-05-06T11:34:04.000Z,15.5
2023-05-06T11:36:49.000Z,17.5
2023-05-06T11:39:34.000Z,15.8
2023-05-06T11:42:18.000Z,17
2023-05-06T11:45:03.000Z,15.7
2023-05-06T11:47:48.000Z,15.2
2023-05-06T11:50:32.000Z,15.5
2023-05-06T11:53:17.000Z,14.5
2023-05-06T11:56:02.000Z,14.4
2023-05-06T11:57:19.000Z,14.5
2023-05-06T11:58:46.000Z,14.2
2023-05-06T12:01:31.000Z,15.3
2023-05-06T12:04:15.000Z,13.4
2023-05-06T12:07:00.000Z,13.5
2023-05-06T12:09:45.000Z,16.2
2023-05-06T12:12:29.000Z,12
2023-05-06T12:15:14.000Z,13.6
2023-05-06T12:17:59.000Z,11.9
2023-05-06T12:20:43.000Z,9.7
2023-05-06T12:23:28.000Z,11.5
2023-05-06T12:24:46.000Z,10.3
2023-05-06T12:26:13.000Z,10.9
2023-05-06T12:28:57.000Z,11
2023-05-06T12:31:42.000Z,10.7
2023-05-06T12:34:26.000Z,9.8
2023-05-06T12:37:11.000Z,9.7
2023-05-06T12:39:56.000Z,11.3
2023-05-06T12:42:40.000Z,12.7
2023-05-06T12:45:25.000Z,9.9
2023-05-06T12:48:10.000Z,11.7
2023-05-06T12:50:54.000Z,14.5
2023-05-06T12:52:12.000Z,10.8
2023-05-06T12:53:39.000Z,9.8
2023-05-06T12:56:24.000Z,12.1
2023-05-06T12:59:08.000Z,15.1
2023-05-06T13:01:53.000Z,11.5
2023-05-06T13:04:38.000Z,11.2
2023-05-06T13:07:22.000Z,10.6
2023-05-06T13:10:07.000Z,12.7
2023-05-06T13:12:51.000Z,12.7
2023-05-06T13:15:36.000Z,11.1
2023-05-06T13:18:21.000Z,11.7
2023-05-06T13:19:39.000Z,11.7
2023-05-06T13:21:05.000Z,12
2023-05-06T13:23:50.000Z,10.4
2023-05-06T13:26:35.000Z,13.5
2023-05-06T13:29:19.000Z,11.3
2023-05-06T13:32:04.000Z,11.1
2023-05-06T13:34:49.000Z,10.9
2023-05-06T13:37:33.000Z,10.2
2023-05-06T13:40:18.000Z,10.9
2023-05-06T13:43:03.000Z,10.2
2023-05-06T13:45:47.000Z,11.2
2023-05-06T13:47:05.000Z,11.1
2023-05-06T13:48:32.000Z,10.3
2023-05-06T13:51:16.000Z,9.7
2023-05-06T13:54:01.000Z,9.4
2023-05-06T13:56:46.000Z,10.7
2023-05-06T13:59:30.000Z,10.8
2023-05-06T14:02:15.000Z,10
2023-05-06T14:05:00.000Z,10.5
2023-05-06T14:07:44.000Z,9.9
2023-05-06T14:10:29.000Z,9.7
2023-05-06T14:13:14.000Z,10.1
2023-05-06T14:14:32.000Z,10.5
2023-05-06T14:15:58.000Z,8.8
2023-05-06T14:18:43.000Z,9.7
2023-05-06T14:21:27.000Z,11.3
2023-05-06T14:24:12.000Z,11.5
2023-05-06T14:26:57.000Z,10.7
2023-05-06T14:29:42.000Z,11.8
2023-05-06T14:32:42.000Z,10.5
2023-05-06T14:35:27.000Z,9.7
2023-05-06T14:38:12.000Z,10.7
2023-05-06T14:40:56.000Z,8.9
2023-05-06T14:42:14.000Z,9.8
2023-05-06T14:43:41.000Z,10.1
2023-05-06T14:46:26.000Z,8.6
2023-05-06T14:49:10.000Z,7.9
2023-05-06T14:51:55.000Z,8.8
2023-05-06T14:54:40.000Z,10.1
2023-05-06T14:57:24.000Z,10.3
2023-05-06T15:00:09.000Z,8.3
2023-05-06T15:02:53.000Z,8.5
2023-05-06T15:05:38.000Z,8
2023-05-06T15:08:23.000Z,8
2023-05-06T15:09:40.000Z,8.9
2023-05-06T15:11:07.000Z,8
2023-05-06T15:13:52.000Z,7.7
2023-05-06T15:16:37.000Z,7.6
2023-05-06T15:19:21.000Z,7.9
2023-05-06T15:22:06.000Z,7.5
2023-05-06T15:24:51.000Z,8
2023-05-06T15:27:35.000Z,8.2
2023-05-06T15:30:20.000Z,6.8
2023-05-06T15:33:05.000Z,7.9
2023-05-06T15:35:49.000Z,7
2023-05-06T15:37:07.000Z,8.4
2023-05-06T15:38:34.000Z,6.7
2023-05-06T15:41:18.000Z,7.5
2023-05-06T15:44:03.000Z,6
2023-05-06T15:46:48.000Z,6.4
2023-05-06T15:49:32.000Z,6.4
2023-05-06T15:52:17.000Z,6.2
2023-05-06T15:55:02.000Z,5.9
2023-05-06T15:57:46.000Z,6.4
2023-05-06T16:00:31.000Z,6.4
2023-05-06T16:03:16.000Z,8
2023-05-06T16:04:33.000Z,8.9
2023-05-06T16:06:00.000Z,6.2
2023-05-06T16:08:45.000Z,8.5
2023-05-06T16:11:29.000Z,7
2023-05-06T16:14:14.000Z,5.9
2023-05-06T16:16:59.000Z,7.1
2023-05-06T16:19:43.000Z,6.7
2023-05-06T16:22:28.000Z,6.8
2023-05-06T16:25:13.000Z,7
2023-05-06T16:27:57.000Z,5.7
2023-05-06T16:30:42.000Z,6.2
2023-05-06T16:32:00.000Z,6.8
2023-05-06T16:33:27.000Z,6
2023-05-06T16:36:11.000Z,4.2
2023-05-06T16:38:56.000Z,5.8
2023-05-06T16:41:41.000Z,6.5
2023-05-06T16:44:25.000Z,6
2023-05-06T16:47:10.000Z,5.4
2023-05-06T16:49:54.000Z,5
2023-05-06T16:52:39.000Z,4.7
2023-05-06T16:55:24.000Z,5.6
2023-05-06T16:58:08.000Z,4
2023-05-06T16:59:26.000Z,4.7
2023-05-06T17:00:53.000Z,5.3
2023-05-06T17:03:38.000Z,4.5
2023-05-06T17:06:22.000Z,4.8
2023-05-06T17:09:07.000Z,3.9
2023-05-06T17:11:52.000Z,5.1
2023-05-06T17:14:36.000Z,4
2023-05-06T17:17:21.000Z,4.1
2023-05-06T17:20:05.000Z,3.6
2023-05-06T17:22:50.000Z,6.8
2023-05-06T17:25:35.000Z,4.1
2023-05-06T17:26:53.000Z,4.6
2023-05-06T17:28:19.000Z,3.1
2023-05-06T17:31:04.000Z,6.2
2023-05-06T17:33:49.000Z,2.5
2023-05-06T17:36:33.000Z,5.5
2023-05-06T17:39:18.000Z,3.6
2023-05-06T17:42:03.000Z,2.4
2023-05-06T17:44:47.000Z,5.2
2023-05-06T17:47:32.000Z,4.1
2023-05-06T17:50:17.000Z,4.6
2023-05-06T17:53:01.000Z,5
2023-05-06T17:54:19.000Z,3.4
2023-05-06T17:55:46.000Z,3.1
2023-05-06T17:58:30.000Z,4.5
2023-05-06T18:01:15.000Z,2.5
2023-05-06T18:04:00.000Z,3.2
2023-05-06T18:06:44.000Z,5.2
2023-05-06T18:09:29.000Z,3.5
2023-05-06T18:12:14.000Z,4.1
2023-05-06T18:14:58.000Z,3.7
2023-05-06T18:17:43.000Z,3.7
2023-05-06T18:20:28.000Z,3.4
2023-05-06T18:21:45.000Z,4.3
2023-05-06T18:23:12.000Z,5.9
2023-05-06T18:25:57.000Z,6.9
2023-05-06T18:28:42.000Z,4
2023-05-06T18:31:26.000Z,2.7
2023-05-06T18:34:11.000Z,3.8
2023-05-06T18:36:55.000Z,2.8
2023-05-06T18:39:40.000Z,3.7
2023-05-06T18:45:09.000Z,2.8
2023-05-06T18:47:54.000Z,4.5
2023-05-06T18:49:12.000Z,3.1
2023-05-06T18:50:39.000Z,3.3
2023-05-06T18:53:23.000Z,3.5
2023-05-06T18:56:08.000Z,3.9
2023-05-06T18:58:53.000Z,3.2
2023-05-06T19:01:37.000Z,3.4
2023-05-06T19:04:22.000Z,2.7
2023-05-06T19:07:06.000Z,3.3
2023-05-06T19:09:51.000Z,2.5
2023-05-06T19:12:36.248Z,2.3
2023-05-06T19:15:20.000Z,2
2023-05-06T19:16:38.000Z,3.4
2023-05-06T19:20:50.000Z,2.7
2023-05-06T19:23:34.000Z,2
2023-05-06T19:26:19.000Z,2.5
2023-05-06T19:29:04.000Z,2.5
2023-05-06T19:31:48.000Z,1.6
2023-05-06T19:34:33.000Z,2.5
2023-05-06T19:37:18.000Z,2.4
2023-05-06T19:40:02.000Z,2.7
2023-05-06T19:42:47.000Z,2.2
2023-05-06T19:44:05.000Z,1.7
2023-05-06T19:45:31.000Z,2.7
2023-05-06T19:48:16.000Z,3.7
2023-05-06T19:51:01.000Z,2.9
2023-05-06T19:53:45.000Z,25
2023-05-06T19:56:30.000Z,18.2
2023-05-06T19:59:15.000Z,7.2
2023-05-06T20:01:59.000Z,6.1
2023-05-06T20:04:44.000Z,5.6
2023-05-06T20:07:29.000Z,5.2
2023-05-06T20:10:13.000Z,4.4
2023-05-06T20:11:31.000Z,4.1
2023-05-06T20:12:58.000Z,54.6
2023-05-06T20:15:42.000Z,61.1
2023-05-06T20:18:27.000Z,9.3
2023-05-06T20:21:12.000Z,12.1
2023-05-06T20:23:56.000Z,8.9
2023-05-06T20:26:41.000Z,15.2
2023-05-06T20:29:26.000Z,4.2
2023-05-06T20:32:10.000Z,3.6
2023-05-06T20:34:55.000Z,3.4
2023-05-06T20:37:40.000Z,14.5
2023-05-06T20:38:58.000Z,4.8
2023-05-06T20:40:24.000Z,3.3
2023-05-06T20:43:09.000Z,4.8
2023-05-06T20:45:54.000Z,4
2023-05-06T20:48:38.000Z,4
2023-05-06T20:51:23.000Z,4.8
2023-05-06T20:54:07.000Z,10.7
2023-05-06T20:56:52.000Z,7.6
2023-05-06T20:59:37.000Z,6.9
2023-05-06T21:02:21.000Z,6.5
2023-05-06T21:05:06.000Z,10.6
2023-05-06T21:06:24.000Z,5.9
2023-05-06T21:07:51.000Z,5.6
2023-05-06T21:10:35.000Z,4.9
2023-05-06T21:13:20.000Z,5.9
2023-05-06T21:16:05.000Z,5.2
2023-05-06T21:18:49.000Z,5.3
2023-05-06T21:21:34.000Z,5.2
2023-05-06T21:24:18.000Z,4.9
2023-05-06T21:27:03.000Z,6.9
2023-05-06T21:29:48.000Z,6.5
2023-05-06T21:32:32.000Z,5.3
2023-05-06T21:33:50.000Z,5.7
2023-05-06T21:35:17.000Z,5.4
2023-05-06T21:38:02.000Z,5.5
2023-05-06T21:40:46.000Z,5.1
2023-05-06T21:43:31.000Z,7.5
2023-05-06T21:46:16.000Z,5.6
2023-05-06T21:49:00.000Z,5.7
2023-05-06T21:51:45.000Z,5.2
2023-05-06T21:54:30.000Z,5.4
2023-05-06T21:59:59.000Z,6.5
2023-05-06T22:01:17.000Z,7.3
2023-05-06T22:02:43.000Z,7.4
2023-05-06T22:05:28.000Z,6.6
2023-05-06T22:08:13.000Z,7.9
2023-05-06T22:10:57.000Z,5.4
2023-05-06T22:13:42.000Z,5.7
2023-05-06T22:16:27.000Z,8
2023-05-06T22:19:11.000Z,6
2023-05-06T22:21:56.000Z,6
2023-05-06T22:24:41.000Z,5.5
2023-05-06T22:27:25.000Z,5.7
2023-05-06T22:28:43.000Z,5.1
2023-05-06T22:30:10.000Z,6.5
2023-05-06T22:32:55.000Z,5.4
2023-05-06T22:35:39.000Z,4.9
2023-05-06T22:38:24.000Z,4.1
2023-05-06T22:41:08.000Z,4.2
2023-05-06T22:43:53.000Z,6.7
2023-05-06T22:46:38.000Z,5
2023-05-06T22:49:22.000Z,4.2
2023-05-06T22:52:07.000Z,6.1
2023-05-06T22:55:08.000Z,7.3
2023-05-06T22:56:26.000Z,5
2023-05-06T22:57:53.000Z,5.3
2023-05-06T23:00:37.000Z,4.7
2023-05-06T23:03:22.000Z,4.4
2023-05-06T23:06:07.000Z,4.9
2023-05-06T23:08:51.000Z,5.7
2023-05-06T23:11:36.000Z,4.8
2023-05-06T23:14:20.000Z,4.3
2023-05-06T23:17:05.000Z,6.8
2023-05-06T23:19:50.000Z,6.2
2023-05-06T23:22:34.000Z,5.7
2023-05-06T23:23:52.000Z,6.2
2023-05-06T23:25:19.000Z,7.7
2023-05-06T23:28:04.000Z,5.3
2023-05-06T23:30:48.000Z,6
2023-05-06T23:33:33.000Z,5.3
2023-05-06T23:36:18.000Z,7.3
2023-05-06T23:39:02.000Z,6.5
2023-05-06T23:41:47.000Z,5.5
2023-05-06T23:44:32.000Z,7.2
2023-05-06T23:47:16.000Z,5.6
2023-05-06T23:50:01.000Z,5.2
2023-05-06T23:51:19.000Z,6
2023-05-06T23:52:45.000Z,6.1
2023-05-06T23:55:30.000Z,7.6
2023-05-06T23:58:15.000Z,5.8
